Time;durP1;ratioP1;P1;durP2;ratioP2;P2;SDS_P1;SDS_P2;PMS_P1;PMS_P2;Temp;Humidity;BMP_temperature;BMP_pressure;BME280_temperature;BME280_humidity;BME280_pressure;Samples;Min_cycle;Max_cycle;Signal;HPM_P1;HPM_P2
2021/04/05 00:00:06;;;;;;;35.33;19.88;;;153.80;1971.20;;;;;;5127088;27;20094;-77
2021/04/05 00:02:56;;;;;;;28.88;17.70;;;153.70;1971.20;;;;;;5087776;28;20032;-78
2021/04/05 00:05:30;;;;;;;29.40;16.48;;;153.60;1971.20;;;;;;5066816;28;20111;-77
2021/04/05 00:07:57;;;;;;;31.10;16.35;;;153.60;1971.20;;;;;;5087836;28;20464;-78
2021/04/05 00:10:30;;;;;;;27.65;17.70;;;153.60;1945.60;;;;;;5093546;28;20020;-78
2021/04/05 00:12:57;;;;;;;30.75;17.55;;;153.60;1945.60;;;;;;5076033;28;20028;-77
2021/04/05 00:15:23;;;;;;;27.05;16.33;;;153.60;1920.00;;;;;;5073797;28;20060;-78
2021/04/05 00:17:49;;;;;;;25.17;15.95;;;153.60;1920.00;;;;;;5087468;28;20062;-77
2021/04/05 00:20:27;;;;;;;25.58;16.02;;;153.60;1920.00;;;;;;5086521;28;20087;-77
2021/04/05 00:22:53;;;;;;;21.85;13.43;;;153.60;1894.40;;;;;;5106164;28;20041;-78
2021/04/05 00:25:19;;;;;;;23.80;15.88;;;153.60;1868.80;;;;;;5083962;28;20028;-77
2021/04/05 00:27:45;;;;;;;24.80;14.95;;;153.70;1868.80;;;;;;5090382;28;20482;-78
2021/04/05 00:30:16;;;;;;;23.73;15.55;;;153.60;1843.20;;;;;;5073772;28;20385;-78
2021/04/05 00:32:49;;;;;;;21.88;14.35;;;153.60;1843.20;;;;;;5090543;28;20428;-78
2021/04/05 00:35:19;;;;;;;23.08;13.75;;;153.70;1792.00;;;;;;5091893;28;20066;-77
2021/04/05 00:37:49;;;;;;;22.52;12.98;;;153.80;1766.40;;;;;;5074377;28;20035;-77
2021/04/05 00:40:18;;;;;;;19.23;12.85;;;153.80;1766.40;;;;;;5082657;28;20569;-77
2021/04/05 00:42:46;;;;;;;20.63;12.70;;;153.80;1740.80;;;;;;5072293;28;20039;-77
2021/04/05 00:45:14;;;;;;;17.42;12.13;;;153.70;1740.80;;;;;;5073500;28;20052;-78
2021/04/05 00:47:46;;;;;;;19.02;12.05;;;153.70;1740.80;;;;;;5089200;28;20065;-77
2021/04/05 00:50:13;;;;;;;17.00;11.25;;;153.70;1740.80;;;;;;5077531;28;20020;-77
2021/04/05 00:52:39;;;;;;;19.02;11.38;;;153.80;1689.60;;;;;;5073407;28;20064;-77
2021/04/05 00:55:07;;;;;;;19.17;12.60;;;153.90;1664.00;;;;;;5083226;28;20414;-78
2021/04/05 00:57:35;;;;;;;14.65;10.07;;;154.00;1664.00;;;;;;5080532;28;20059;-77
2021/04/05 01:00:04;;;;;;;16.30;11.27;;;154.00;1638.40;;;;;;5086505;28;20099;-77
2021/04/05 01:02:33;;;;;;;16.20;11.43;;;154.00;1638.40;;;;;;5109523;27;20029;-77
2021/04/05 01:04:59;;;;;;;19.08;12.30;;;154.00;1664.00;;;;;;5073014;28;20020;-78
2021/04/05 01:07:24;;;;;;;16.75;10.50;;;154.00;1638.40;;;;;;5081537;28;20047;-77
2021/04/05 01:09:50;;;;;;;17.33;10.60;;;153.90;1664.00;;;;;;5091350;28;20094;-77
2021/04/05 01:12:16;;;;;;;18.17;11.50;;;153.70;1664.00;;;;;;5093424;28;20095;-78
2021/04/05 01:14:42;;;;;;;15.90;10.82;;;153.60;1715.20;;;;;;5090746;28;20561;-77
2021/04/05 01:17:07;;;;;;;18.33;11.15;;;128.90;1715.20;;;;;;5105391;28;20039;-77
2021/04/05 01:19:33;;;;;;;19.80;11.63;;;128.90;1715.20;;;;;;5083544;28;20047;-77
2021/04/05 01:21:59;;;;;;;22.20;12.15;;;128.90;1689.60;;;;;;5089584;28;20587;-77
2021/04/05 01:24:26;;;;;;;17.13;11.40;;;153.60;1689.60;;;;;;5120203;28;20059;-78
2021/04/05 01:26:52;;;;;;;16.38;10.98;;;153.60;1664.00;;;;;;5078113;28;20119;-77
2021/04/05 01:29:18;;;;;;;19.73;12.90;;;153.70;1664.00;;;;;;5077920;28;20119;-77
2021/04/05 01:31:44;;;;;;;20.60;11.30;;;153.80;1638.40;;;;;;5071702;28;20031;-77
2021/04/05 01:34:09;;;;;;;18.92;12.05;;;153.70;1664.00;;;;;;5076704;28;20055;-77
2021/04/05 01:36:35;;;;;;;19.00;11.60;;;153.70;1664.00;;;;;;5088336;28;20023;-77
2021/04/05 01:39:01;;;;;;;17.88;10.90;;;153.60;1664.00;;;;;;5128596;27;20028;-77
2021/04/05 01:41:31;;;;;;;18.80;10.93;;;128.80;1689.60;;;;;;5116041;27;20493;-77
2021/04/05 01:43:58;;;;;;;16.08;10.93;;;128.60;1689.60;;;;;;5079704;28;20028;-77
2021/04/05 01:46:25;;;;;;;18.63;10.55;;;128.40;1740.80;;;;;;5097062;28;20038;-76
2021/04/05 01:48:51;;;;;;;16.40;10.82;;;128.30;1766.40;;;;;;5090148;28;20020;-76
2021/04/05 01:51:19;;;;;;;18.50;10.93;;;128.10;1766.40;;;;;;5078579;28;20043;-77
2021/04/05 01:53:46;;;;;;;17.20;11.65;;;128.00;1766.40;;;;;;5097154;28;20020;-77
2021/04/05 01:56:14;;;;;;;19.55;11.40;;;128.10;1766.40;;;;;;5095656;28;20020;-76
2021/04/05 01:58:42;;;;;;;17.27;10.88;;;128.10;1766.40;;;;;;5093805;28;20038;-77
2021/04/05 02:01:11;;;;;;;22.00;12.00;;;128.00;1792.00;;;;;;5090966;28;20024;-77
2021/04/05 02:03:39;;;;;;;19.58;12.10;;;103.30;1766.40;;;;;;5095199;28;20115;-77
2021/04/05 02:06:09;;;;;;;20.27;11.57;;;103.30;1766.40;;;;;;5094810;28;20038;-76
2021/04/05 02:08:37;;;;;;;26.52;13.85;;;103.30;1766.40;;;;;;5095395;28;20350;-76
2021/04/05 02:11:12;;;;;;;28.60;15.02;;;103.20;1792.00;;;;;;5096136;28;20031;-76
2021/04/05 02:13:39;;;;;;;26.23;14.98;;;103.10;1792.00;;;;;;5087089;28;20481;-77
2021/04/05 02:16:05;;;;;;;27.35;14.25;;;103.10;1817.60;;;;;;5076294;28;20069;-77
2021/04/05 02:18:31;;;;;;;25.67;15.07;;;103.00;1792.00;;;;;;5079032;28;20084;-77
2021/04/05 02:20:58;;;;;;;27.98;15.20;;;103.10;1817.60;;;;;;5090183;28;20115;-77
2021/04/05 02:23:27;;;;;;;25.98;14.23;;;102.90;1817.60;;;;;;5075022;28;20029;-77
2021/04/05 02:26:07;;;;;;;23.08;14.70;;;103.00;1792.00;;;;;;5075057;28;20036;-77
2021/04/05 02:28:41;;;;;;;24.70;14.77;;;103.10;1817.60;;;;;;5079460;28;20059;-77
2021/04/05 02:31:09;;;;;;;25.08;14.55;;;102.90;1817.60;;;;;;5096445;28;20098;-77
2021/04/05 02:33:37;;;;;;;23.15;12.35;;;103.00;1817.60;;;;;;5081709;28;20394;-77
2021/04/05 02:36:03;;;;;;;21.83;13.00;;;103.10;1817.60;;;;;;5085178;28;20020;-77
2021/04/05 02:38:29;;;;;;;22.23;12.00;;;103.00;1792.00;;;;;;5094426;28;20036;-77
2021/04/05 02:40:55;;;;;;;22.40;12.43;;;103.00;1792.00;;;;;;5121372;27;20032;-77
2021/04/05 02:43:21;;;;;;;17.65;12.38;;;102.80;1792.00;;;;;;5076655;28;20029;-77
2021/04/05 02:45:47;;;;;;;19.50;11.57;;;102.90;1792.00;;;;;;5077590;28;20505;-77
2021/04/05 02:48:14;;;;;;;21.20;12.85;;;102.80;1792.00;;;;;;5081373;28;20119;-77
2021/04/05 02:50:41;;;;;;;17.33;12.30;;;102.80;1817.60;;;;;;5073946;28;20025;-77
2021/04/05 02:53:08;;;;;;;21.23;12.05;;;102.80;1817.60;;;;;;5074362;28;20067;-77
2021/04/05 02:55:37;;;;;;;20.77;12.63;;;102.70;1817.60;;;;;;5082270;28;20033;-77
2021/04/05 02:58:06;;;;;;;20.55;12.45;;;102.80;1817.60;;;;;;5079838;28;20107;-76
2021/04/05 03:00:33;;;;;;;20.90;12.82;;;102.70;1817.60;;;;;;5076774;28;20021;-76
2021/04/05 03:02:59;;;;;;;21.42;12.70;;;102.60;1843.20;;;;;;5073768;28;20028;-78
2021/04/05 03:05:26;;;;;;;18.00;11.45;;;102.50;1868.80;;;;;;5074011;28;20060;-78
2021/04/05 03:07:53;;;;;;;15.80;11.05;;;102.50;1843.20;;;;;;5076876;28;20071;-77
2021/04/05 03:10:24;;;;;;;21.33;13.55;;;102.40;1868.80;;;;;;5091261;28;20020;-77
2021/04/05 03:12:53;;;;;;;22.23;13.05;;;102.40;1894.40;;;;;;5095415;28;20024;-77
2021/04/05 03:15:20;;;;;;;38.25;20.80;;;77.70;1894.40;;;;;;5076299;28;20052;-77
2021/04/05 03:17:48;;;;;;;34.88;20.30;;;102.40;1843.20;;;;;;5074899;28;20107;-77
2021/04/05 03:20:18;;;;;;;29.80;17.27;;;102.50;1843.20;;;;;;5073848;28;20031;-77
2021/04/05 03:22:45;;;;;;;27.13;13.57;;;102.70;1817.60;;;;;;5080244;28;20390;-77
2021/04/05 03:25:19;;;;;;;26.83;14.93;;;102.70;1843.20;;;;;;5088625;28;20084;-77
2021/04/05 03:27:46;;;;;;;21.10;12.35;;;102.60;1843.20;;;;;;5092486;28;20032;-76
2021/04/05 03:30:20;;;;;;;25.00;14.88;;;102.60;1843.20;;;;;;5094782;28;20466;-76
2021/04/05 03:32:50;;;;;;;32.63;17.42;;;102.60;1843.20;;;;;;5087619;28;20059;-77
2021/04/05 03:35:22;;;;;;;31.80;18.43;;;102.70;1817.60;;;;;;5074840;28;20036;-76
2021/04/05 03:37:49;;;;;;;23.70;15.00;;;102.70;1843.20;;;;;;5091529;28;20020;-76
2021/04/05 03:40:15;;;;;;;25.63;15.38;;;102.60;1843.20;;;;;;5094581;28;20146;-77
2021/04/05 03:42:45;;;;;;;29.35;17.08;;;102.40;1868.80;;;;;;5087027;28;20091;-76
2021/04/05 03:45:26;;;;;;;32.03;18.10;;;77.70;1894.40;;;;;;5091148;28;20479;-76
2021/04/05 03:47:57;;;;;;;;;;;77.70;1894.40;;;;;;5095145;28;20499;-76
2021/04/05 03:50:28;;;;;;;33.42;20.48;;;102.40;1868.80;;;;;;5088800;28;19909;-76
2021/04/05 03:53:01;;;;;;;33.97;18.20;;;102.50;1868.80;;;;;;5074731;28;20024;-77
2021/04/05 03:55:30;;;;;;;31.08;16.40;;;102.50;1868.80;;;;;;5075565;28;20089;-76
2021/04/05 03:57:59;;;;;;;37.22;19.40;;;102.40;1868.80;;;;;;5090134;28;20374;-77
2021/04/05 04:00:28;;;;;;;31.85;16.05;;;77.70;1920.00;;;;;;5076349;28;20405;-80
2021/04/05 04:02:54;;;;;;;36.92;17.30;;;77.60;1894.40;;;;;;5106919;28;20485;-77
2021/04/05 04:10:33;;;;;;;38.65;18.58;;;102.50;1868.80;;;;;;5074495;28;20021;-76
2021/04/05 04:13:04;;;;;;;45.65;19.20;;;102.50;1868.80;;;;;;5088532;28;20407;-76
2021/04/05 04:15:32;;;;;;;36.53;20.20;;;102.60;1868.80;;;;;;5094337;28;20123;-77
2021/04/05 04:18:01;;;;;;;57.20;29.95;;;102.40;1894.40;;;;;;5093820;28;20032;-76
2021/04/05 04:20:28;;;;;;;82.03;41.78;;;77.70;1894.40;;;;;;5094003;28;20031;-76
2021/04/05 04:22:55;;;;;;;42.40;23.95;;;102.50;1894.40;;;;;;5084760;28;20112;-76
2021/04/05 04:25:21;;;;;;;50.92;31.40;;;102.40;1894.40;;;;;;5072989;28;20060;-76
2021/04/05 04:27:47;;;;;;;40.10;24.63;;;102.40;1894.40;;;;;;5073904;28;20023;-77
2021/04/05 04:30:31;;;;;;;31.48;20.25;;;102.40;1894.40;;;;;;5090988;28;20032;-77
2021/04/05 04:33:07;;;;;;;30.35;17.77;;;102.50;1894.40;;;;;;5094103;28;20022;-77
2021/04/05 04:35:35;;;;;;;36.28;18.52;;;102.50;1894.40;;;;;;5093275;28;20153;-77
2021/04/05 04:38:03;;;;;;;36.28;19.90;;;102.50;1894.40;;;;;;5073581;28;20040;-78
2021/04/05 04:40:30;;;;;;;32.45;19.23;;;102.50;1894.40;;;;;;5072447;28;20489;-76
2021/04/05 04:42:58;;;;;;;35.92;22.73;;;102.50;1920.00;;;;;;5079011;28;20036;-76
2021/04/05 04:45:25;;;;;;;38.58;21.23;;;102.50;1894.40;;;;;;5093462;28;20028;-77
2021/04/05 04:47:51;;;;;;;36.00;20.23;;;102.70;1868.80;;;;;;5093745;28;20024;-77
2021/04/05 04:50:18;;;;;;;34.70;19.00;;;102.60;1868.80;;;;;;5093430;28;20048;-77
2021/04/05 04:52:44;;;;;;;38.10;19.40;;;102.80;1843.20;;;;;;5091994;28;20028;-77
2021/04/05 04:55:11;;;;;;;38.90;19.50;;;102.80;1817.60;;;;;;5093382;28;20028;-78
2021/04/05 04:57:37;;;;;;;40.22;19.73;;;102.80;1817.60;;;;;;5091400;28;20039;-77
2021/04/05 05:00:05;;;;;;;34.13;19.38;;;102.80;1817.60;;;;;;5091276;28;20040;-80
2021/04/05 05:02:32;;;;;;;36.55;20.13;;;102.90;1817.60;;;;;;5092869;28;20035;-78
2021/04/05 05:05:00;;;;;;;33.38;20.45;;;103.00;1817.60;;;;;;5089832;28;20041;-79
2021/04/05 05:07:27;;;;;;;39.70;22.13;;;103.00;1817.60;;;;;;5086260;28;20027;-77
2021/04/05 05:09:54;;;;;;;33.10;19.33;;;103.00;1817.60;;;;;;5092178;28;20042;-78
2021/04/05 05:12:20;;;;;;;34.58;19.85;;;103.10;1817.60;;;;;;5092871;28;20087;-78
2021/04/05 05:14:47;;;;;;;33.13;19.77;;;103.10;1817.60;;;;;;5093421;28;20060;-80
2021/04/05 05:17:14;;;;;;;31.67;19.90;;;103.20;1792.00;;;;;;5079555;28;20056;-78
2021/04/05 05:19:39;;;;;;;37.20;20.48;;;103.20;1817.60;;;;;;5092953;28;20035;-78
2021/04/05 05:22:08;;;;;;;32.95;20.23;;;103.30;1792.00;;;;;;5093038;28;20020;-78
2021/04/05 05:24:36;;;;;;;45.90;22.33;;;128.00;1817.60;;;;;;5093069;28;20047;-78
2021/04/05 05:27:04;;;;;;;38.08;18.77;;;128.00;1817.60;;;;;;5077647;28;20033;-77
2021/04/05 05:29:30;;;;;;;31.27;17.52;;;128.00;1817.60;;;;;;5086786;28;20016;-77
2021/04/05 05:31:56;;;;;;;29.38;16.92;;;128.10;1766.40;;;;;;5093174;28;20025;-77
2021/04/05 05:34:23;;;;;;;31.60;15.98;;;128.30;1766.40;;;;;;5091702;28;20043;-79
2021/04/05 05:36:49;;;;;;;30.25;17.38;;;128.20;1766.40;;;;;;5093009;28;20099;-77
2021/04/05 05:39:17;;;;;;;32.53;16.98;;;128.40;1766.40;;;;;;5100949;28;20481;-77
2021/04/05 05:42:04;;;;;;;25.10;16.80;;;128.40;1740.80;;;;;;5095123;28;20032;-77
2021/04/05 05:44:42;;;;;;;29.30;16.35;;;128.60;1740.80;;;;;;5092030;28;20107;-77
2021/04/05 05:47:30;;;;;;;24.88;15.63;;;128.60;1740.80;;;;;;5092593;28;20103;-77
2021/04/05 05:50:18;;;;;;;30.10;17.40;;;128.70;1740.80;;;;;;5092008;28;20024;-77
2021/04/05 05:53:02;;;;;;;26.92;16.50;;;128.70;1740.80;;;;;;5091903;28;20069;-78
2021/04/05 05:55:34;;;;;;;31.83;18.48;;;128.80;1715.20;;;;;;5091332;28;20111;-77
2021/04/05 05:58:34;;;;;;;24.10;15.13;;;128.90;1715.20;;;;;;5091856;28;20459;-77
2021/04/05 06:01:17;;;;;;;28.08;15.85;;;153.60;1715.20;;;;;;5093316;28;20384;-77
2021/04/05 06:03:52;;;;;;;33.05;20.02;;;153.60;1715.20;;;;;;5091795;28;20055;-77
2021/04/05 06:06:23;;;;;;;27.52;16.40;;;153.80;1715.20;;;;;;5091923;28;20028;-77
2021/04/05 06:08:48;;;;;;;;;;;153.80;1689.60;;;;;;5092326;28;20073;-78
2021/04/05 06:11:47;;;;;;;23.85;14.95;;;153.90;1715.20;;;;;;5092921;28;20408;-79
2021/04/05 06:14:33;;;;;;;25.98;14.00;;;154.00;1715.20;;;;;;5091522;28;20417;-77
2021/04/05 06:17:22;;;;;;;23.38;12.85;;;154.10;1715.20;;;;;;5091610;28;20385;-78
2021/04/05 06:20:20;;;;;;;20.23;11.38;;;154.20;1715.20;;;;;;5091096;28;20704;-78
2021/04/05 06:23:15;;;;;;;17.27;12.35;;;154.20;1740.80;;;;;;5092365;28;20064;-78
2021/04/05 06:26:08;;;;;;;25.15;14.10;;;154.30;1740.80;;;;;;5096325;28;20020;-78
2021/04/05 06:28:47;;;;;;;24.33;14.40;;;154.40;1715.20;;;;;;5094401;28;20035;-78
2021/04/05 06:31:50;;;;;;;25.63;14.50;;;179.20;1715.20;;;;;;5095179;28;20031;-78
2021/04/05 06:34:32;;;;;;;29.33;13.65;;;179.30;1715.20;;;;;;5096400;28;20020;-78
2021/04/05 06:37:16;;;;;;;23.13;14.05;;;179.40;1715.20;;;;;;5095013;28;20111;-77
2021/04/05 06:39:50;;;;;;;20.95;13.63;;;179.60;1689.60;;;;;;5096595;28;20020;-77
2021/04/05 06:42:34;;;;;;;21.10;13.23;;;179.70;1664.00;;;;;;5095201;28;20024;-78
2021/04/05 06:45:06;;;;;;;24.52;13.63;;;179.80;1664.00;;;;;;5094826;28;20031;-78
2021/04/05 06:47:48;;;;;;;53.20;15.93;;;179.80;1664.00;;;;;;5095786;28;20077;-77
2021/04/05 06:50:50;;;;;;;24.38;13.32;;;180.00;1664.00;;;;;;5094658;28;20032;-77
2021/04/05 06:53:46;;;;;;;30.38;14.63;;;180.10;1612.80;;;;;;5096863;28;20020;-78
2021/04/05 06:56:26;;;;;;;22.45;12.38;;;204.80;1612.80;;;;;;5094549;28;20052;-79
2021/04/05 06:59:10;;;;;;;90.43;37.38;;;204.90;1587.20;;;;;;5092951;28;20077;-78
2021/04/05 07:01:57;;;;;;;18.00;11.57;;;205.00;1612.80;;;;;;5094180;28;20031;-78
2021/04/05 07:04:40;;;;;;;19.33;11.60;;;205.10;1561.60;;;;;;5092853;28;20032;-78
2021/04/05 07:07:24;;;;;;;25.02;11.90;;;205.20;1561.60;;;;;;5095975;28;20027;-78
2021/04/05 07:10:02;;;;;;;18.73;12.13;;;205.20;1612.80;;;;;;5094037;28;20439;-78
2021/04/05 07:13:03;;;;;;;21.70;13.60;;;205.30;1587.20;;;;;;5095201;28;20052;-77
2021/04/05 07:15:57;;;;;;;17.55;11.65;;;205.40;1587.20;;;;;;5093927;28;20056;-77
2021/04/05 07:18:35;;;;;;;20.40;11.55;;;205.50;1561.60;;;;;;5093868;28;20032;-76
2021/04/05 07:21:10;;;;;;;18.50;11.07;;;205.60;1561.60;;;;;;5095600;28;20024;-77
2021/04/05 07:24:13;;;;;;;18.40;12.65;;;205.70;1536.00;;;;;;5095164;28;20485;-76
2021/04/05 07:27:06;;;;;;;14.60;9.68;;;205.70;1510.40;;;;;;5093974;28;20021;-76
2021/04/05 07:29:53;;;;;;;14.73;8.43;;;230.40;1459.20;;;;;;5093997;28;20104;-77
2021/04/05 07:32:44;;;;;;;17.13;10.18;;;230.50;1433.60;;;;;;5094050;28;20054;-78
2021/04/05 07:35:51;;;;;;;18.73;11.63;;;230.60;1459.20;;;;;;5093605;28;20078;-76
2021/04/05 07:38:40;;;;;;;20.95;12.10;;;230.70;1484.80;;;;;;5093567;28;20032;-76
2021/04/05 07:41:25;;;;;;;24.00;11.43;;;230.80;1484.80;;;;;;5092646;28;20036;-77
2021/04/05 07:44:02;;;;;;;17.33;10.02;;;230.80;1459.20;;;;;;5092098;28;20028;-76
2021/04/05 07:46:35;;;;;;;15.20;10.55;;;230.90;1459.20;;;;;;5093531;28;20031;-76
2021/04/05 07:49:01;;;;;;;18.95;11.40;;;230.90;1459.20;;;;;;5095037;28;20017;-77
2021/04/05 07:51:48;;;;;;;15.73;10.38;;;231.00;1459.20;;;;;;5093427;28;20023;-77
2021/04/05 07:54:17;;;;;;;16.85;10.55;;;231.10;1459.20;;;;;;5094692;28;20020;-77
2021/04/05 07:56:55;;;;;;;15.77;10.85;;;231.10;1433.60;;;;;;5094731;28;20440;-78
2021/04/05 07:59:46;;;;;;;18.88;10.98;;;231.20;1433.60;;;;;;5093345;28;20040;-77
2021/04/05 08:02:12;;;;;;;19.45;12.13;;;231.30;1408.00;;;;;;5093257;28;20481;-77
2021/04/05 08:04:43;;;;;;;20.13;12.02;;;231.30;1408.00;;;;;;5094481;28;20077;-78
2021/04/05 08:07:16;;;;;;;13.00;9.77;;;256.00;1408.00;;;;;;5094082;28;20024;-78
2021/04/05 08:10:18;;;;;;;18.08;10.30;;;256.00;1356.80;;;;;;5094457;28;20012;-78
2021/04/05 08:13:02;;;;;;;22.50;11.35;;;256.00;1382.40;;;;;;5091548;28;20040;-77
2021/04/05 08:15:51;;;;;;;18.83;9.60;;;256.10;1356.80;;;;;;5094200;28;20468;-77
2021/04/05 08:18:41;;;;;;;23.88;10.52;;;256.20;1356.80;;;;;;5093078;28;20074;-78
2021/04/05 08:21:15;;;;;;;15.98;10.77;;;256.30;1356.80;;;;;;5094559;28;20115;-77
2021/04/05 08:24:04;;;;;;;13.98;10.73;;;256.40;1382.40;;;;;;5094371;28;20489;-77
2021/04/05 08:26:40;;;;;;;16.90;9.70;;;256.40;1331.20;;;;;;5080458;28;20832;-78
2021/04/05 08:29:09;;;;;;;21.08;10.73;;;256.50;1331.20;;;;;;5094501;28;20579;-78
2021/04/05 08:32:07;;;;;;;19.30;9.40;;;256.60;1331.20;;;;;;5092679;28;20026;-78
2021/04/05 08:34:42;;;;;;;15.60;8.23;;;256.70;1331.20;;;;;;5059337;28;20043;-78
2021/04/05 08:37:14;;;;;;;10.98;7.22;;;256.70;1305.60;;;;;;5094077;28;20464;-77
2021/04/05 08:40:07;;;;;;;11.50;7.90;;;256.70;1254.40;;;;;;5093975;28;20052;-78
2021/04/05 08:42:51;;;;;;;12.68;8.45;;;256.80;1280.00;;;;;;5093931;28;20028;-78
2021/04/05 08:45:23;;;;;;;12.52;8.23;;;281.60;1331.20;;;;;;5093761;28;20024;-78
2021/04/05 08:48:02;;;;;;;9.68;6.03;;;281.70;1331.20;;;;;;5091866;28;20051;-78
2021/04/05 08:50:31;;;;;;;13.23;8.45;;;281.70;1280.00;;;;;;5094090;28;20365;-78
2021/04/05 08:52:58;;;;;;;13.43;7.25;;;281.80;1305.60;;;;;;5092561;28;20027;-78
2021/04/05 08:55:29;;;;;;;11.30;7.78;;;281.90;1254.40;;;;;;5092382;28;20031;-77
2021/04/05 08:58:06;;;;;;;13.80;7.63;;;281.90;1254.40;;;;;;5093573;28;20115;-77
2021/04/05 09:00:37;;;;;;;18.98;7.20;;;282.00;1228.80;;;;;;5093591;28;20036;-77
2021/04/05 09:03:11;;;;;;;11.57;6.63;;;282.10;1254.40;;;;;;5092227;28;20030;-77
2021/04/05 09:05:44;;;;;;;9.35;7.72;;;282.10;1177.60;;;;;;5093477;28;20026;-77
2021/04/05 09:08:11;;;;;;;6.85;5.50;;;282.10;1203.20;;;;;;5092168;28;20050;-77
2021/04/05 09:10:53;;;;;;;14.18;6.75;;;282.20;1152.00;;;;;;5092091;28;20107;-77
2021/04/05 09:13:27;;;;;;;8.77;5.93;;;282.30;1152.00;;;;;;5093410;28;20077;-77
2021/04/05 09:16:08;;;;;;;12.77;7.05;;;282.40;1152.00;;;;;;5091620;28;20093;-77
2021/04/05 09:19:17;;;;;;;7.72;6.20;;;282.40;1203.20;;;;;;5092472;28;20052;-77
2021/04/05 09:22:14;;;;;;;7.57;5.40;;;282.50;1152.00;;;;;;5083999;28;20120;-76
2021/04/05 09:24:58;;;;;;;8.55;6.30;;;307.30;1177.60;;;;;;5093271;28;20077;-76
2021/04/05 09:27:38;;;;;;;14.48;6.38;;;307.30;1152.00;;;;;;5092759;28;20031;-78
2021/04/05 09:30:30;;;;;;;;;;;307.30;1126.40;;;;;;5093067;28;20470;-78
2021/04/05 09:33:04;;;;;;;;;;;307.30;1100.80;;;;;;5093747;28;19999;-77
2021/04/05 09:36:09;;;;;;;24.40;17.42;;;307.30;1152.00;;;;;;5093258;28;19942;-78
2021/04/05 09:38:57;;;;;;;10.98;7.30;;;307.40;1152.00;;;;;;5091979;28;20028;-78
2021/04/05 09:41:28;;;;;;;8.52;6.45;;;307.50;1203.20;;;;;;5093150;28;20028;-77
2021/04/05 09:44:09;;;;;;;10.50;8.05;;;307.50;1152.00;;;;;;5091888;28;20024;-77
2021/04/05 09:46:46;;;;;;;;;;;307.50;1126.40;;;;;;5093390;28;20025;-77
2021/04/05 09:49:38;;;;;;;8.07;7.28;;;307.50;1203.20;;;;;;5092806;28;19939;-77
2021/04/05 09:52:39;;;;;;;8.38;6.68;;;307.50;1126.40;;;;;;5092991;28;20028;-77
2021/04/05 09:55:13;;;;;;;8.90;7.55;;;307.50;1100.80;;;;;;5079280;28;20036;-77
2021/04/05 09:57:46;;;;;;;8.52;6.53;;;307.70;1152.00;;;;;;5090217;28;20024;-77
2021/04/05 10:00:16;;;;;;;13.82;7.13;;;307.80;1152.00;;;;;;5096555;28;20024;-78
2021/04/05 10:02:48;;;;;;;7.82;6.13;;;307.80;1100.80;;;;;;5095706;28;20408;-77
2021/04/05 10:05:16;;;;;;;8.15;6.63;;;307.80;1100.80;;;;;;5096817;28;20122;-77
2021/04/05 10:07:45;;;;;;;10.80;6.50;;;307.90;1126.40;;;;;;5097173;28;20016;-77
2021/04/05 10:10:13;;;;;;;9.40;7.95;;;308.00;1152.00;;;;;;5096895;28;20027;-77
2021/04/05 10:12:40;;;;;;;8.07;6.70;;;308.10;1126.40;;;;;;5094861;28;20039;-77
2021/04/05 10:15:11;;;;;;;11.18;6.68;;;308.10;1126.40;;;;;;5095784;28;20480;-77
2021/04/05 10:17:37;;;;;;;9.52;7.55;;;332.80;1152.00;;;;;;5095342;28;20081;-77
2021/04/05 10:20:06;;;;;;;9.63;7.50;;;332.90;1152.00;;;;;;5096720;28;20036;-78
2021/04/05 10:22:45;;;;;;;9.57;6.63;;;332.80;1126.40;;;;;;5096086;28;20073;-78
2021/04/05 10:25:13;;;;;;;8.07;6.85;;;332.80;1152.00;;;;;;5096622;28;20103;-77
2021/04/05 10:27:41;;;;;;;12.52;7.30;;;332.90;1152.00;;;;;;5096325;28;20082;-77
2021/04/05 10:30:09;;;;;;;7.60;6.80;;;332.90;1152.00;;;;;;5094874;28;20027;-76
2021/04/05 10:32:40;;;;;;;10.02;7.70;;;332.90;1177.60;;;;;;5096118;28;20598;-77
2021/04/05 10:35:09;;;;;;;11.27;8.45;;;333.10;1152.00;;;;;;5096024;28;20125;-78
2021/04/05 10:37:40;;;;;;;11.73;8.38;;;333.10;1152.00;;;;;;5095080;28;20481;-77
2021/04/05 10:40:13;;;;;;;13.55;7.93;;;333.10;1152.00;;;;;;5093304;28;20147;-78
2021/04/05 10:42:51;;;;;;;9.45;6.88;;;333.30;1177.60;;;;;;5096362;28;20024;-80
2021/04/05 10:45:27;;;;;;;12.75;7.13;;;333.40;1152.00;;;;;;5094722;28;20520;-76
2021/04/05 10:48:20;;;;;;;18.33;8.77;;;333.40;1177.60;;;;;;5094922;28;20028;-79
2021/04/05 10:50:55;;;;;;;14.25;8.13;;;333.50;1152.00;;;;;;5077742;28;20036;-78
2021/04/05 10:53:23;;;;;;;12.77;7.90;;;333.60;1177.60;;;;;;5094888;28;20027;-79
2021/04/05 10:55:56;;;;;;;8.73;7.53;;;333.70;1126.40;;;;;;5094639;28;20024;-79
2021/04/05 10:58:28;;;;;;;16.02;8.55;;;333.70;1152.00;;;;;;5095971;28;20031;-79
2021/04/05 11:00:58;;;;;;;10.00;7.10;;;358.40;1126.40;;;;;;5095944;28;20073;-78
2021/04/05 11:03:27;;;;;;;11.73;8.35;;;358.40;1126.40;;;;;;5095681;28;20052;-79
2021/04/05 11:06:00;;;;;;;14.07;8.55;;;358.50;1100.80;;;;;;5094371;28;20100;-77
2021/04/05 11:08:32;;;;;;;17.45;9.18;;;358.50;1100.80;;;;;;5095710;28;20070;-77
2021/04/05 11:11:05;;;;;;;10.70;7.63;;;358.50;1075.20;;;;;;5094653;28;20504;-77
2021/04/05 11:13:36;;;;;;;14.43;7.78;;;358.50;1126.40;;;;;;5095844;28;20024;-77
2021/04/05 11:16:08;;;;;;;11.35;9.23;;;358.50;1126.40;;;;;;5096052;28;20385;-77
2021/04/05 11:18:36;;;;;;;13.40;8.82;;;358.70;1126.40;;;;;;5095606;28;20032;-77
2021/04/05 11:21:03;;;;;;;26.50;12.13;;;358.70;1075.20;;;;;;5095645;28;20016;-77
2021/04/05 11:23:35;;;;;;;22.58;10.55;;;358.70;1075.20;;;;;;5095097;28;20035;-77
2021/04/05 11:26:04;;;;;;;19.17;10.60;;;358.70;1075.20;;;;;;5094061;28;20492;-77
2021/04/05 11:28:32;;;;;;;22.83;11.02;;;358.80;1126.40;;;;;;5095622;28;20035;-78
2021/04/05 11:31:10;;;;;;;15.73;7.88;;;358.90;1100.80;;;;;;5095268;28;20016;-78
2021/04/05 11:33:42;;;;;;;13.75;7.68;;;358.90;1049.60;;;;;;5095358;28;20020;-77
2021/04/05 11:36:08;;;;;;;8.05;6.85;;;359.00;1049.60;;;;;;5095624;28;20052;-78
2021/04/05 11:38:44;;;;;;;9.65;5.93;;;359.20;1024.00;;;;;;5093910;28;20023;-78
2021/04/05 11:41:13;;;;;;;8.13;6.45;;;359.30;1024.00;;;;;;5095232;28;20028;-78
2021/04/05 11:43:41;;;;;;;14.07;7.53;;;384.00;972.80;;;;;;5093836;28;20370;-78
2021/04/05 11:46:13;;;;;;;8.60;6.28;;;384.00;972.80;;;;;;5093586;28;20039;-77
2021/04/05 11:48:39;;;;;;;16.98;6.57;;;384.20;972.80;;;;;;5093603;28;20024;-78
2021/04/05 11:51:06;;;;;;;45.13;25.52;;;384.20;947.20;;;;;;5093697;28;20073;-78
2021/04/05 11:53:54;;;;;;;7.40;6.55;;;384.20;972.80;;;;;;5094864;28;20073;-78
2021/04/05 11:56:26;;;;;;;8.70;5.80;;;384.30;972.80;;;;;;5093480;28;20028;-78
2021/04/05 11:59:02;;;;;;;18.92;6.25;;;384.40;972.80;;;;;;5093496;28;20036;-78
2021/04/05 12:01:36;;;;;;;6.10;5.50;;;384.50;972.80;;;;;;5094795;28;20035;-77
2021/04/05 12:04:38;;;;;;;6.85;5.55;;;384.50;947.20;;;;;;5093428;28;20024;-77
2021/04/05 12:07:32;;;;;;;8.88;7.80;;;384.40;921.60;;;;;;5094075;28;20028;-77
2021/04/05 12:10:05;;;;;;;8.38;5.85;;;384.50;921.60;;;;;;5093246;28;20481;-78
2021/04/05 12:12:44;;;;;;;6.53;5.85;;;384.50;896.00;;;;;;5094484;28;20016;-79
2021/04/05 12:15:19;;;;;;;8.75;5.80;;;384.40;921.60;;;;;;5093246;28;20067;-77
2021/04/05 12:17:49;;;;;;;6.38;5.53;;;384.60;896.00;;;;;;5094616;28;20051;-77
2021/04/05 12:20:15;;;;;;;;;;;384.50;921.60;;;;;;5094681;28;20024;-77
2021/04/05 12:22:43;;;;;;;16.27;7.07;;;384.60;896.00;;;;;;5093330;28;19904;-78
2021/04/05 12:25:09;;;;;;;8.55;6.10;;;384.70;870.40;;;;;;5092785;28;20032;-78
2021/04/05 12:27:39;;;;;;;14.45;5.45;;;384.80;870.40;;;;;;5091825;28;20369;-78
2021/04/05 12:30:09;;;;;;;12.77;6.47;;;384.90;896.00;;;;;;5093972;28;20028;-77
2021/04/05 12:32:38;;;;;;;6.30;5.35;;;384.90;870.40;;;;;;5091631;28;20256;-71
2021/04/05 12:35:08;;;;;;;13.25;7.40;;;409.60;972.80;;;;;;5092450;28;20028;-78
2021/04/05 12:37:34;;;;;;;8.65;5.93;;;409.80;1510.40;;;;;;5092859;28;20028;-77
2021/04/05 12:40:03;;;;;;;9.55;6.47;;;409.90;1254.40;;;;;;5092478;28;20047;-76
2021/04/05 12:42:31;;;;;;;10.93;7.90;;;409.90;1280.00;;;;;;5092696;28;20024;-77